Time;durP1;ratioP1;P1;durP2;ratioP2;P2;SDS_P1;SDS_P2;PMS_P1;PMS_P2;Temp;Humidity;BMP_temperature;BMP_pressure;BME280_temperature;BME280_humidity;BME280_pressure;Samples;Min_cycle;Max_cycle;Signal;HPM_P1;HPM_P2
2024/01/25 00:00:35;;;;;;;13.60;4.88;;;22.10;32.90;;;;;;4969852;28;20055;-57
2024/01/25 00:03:02;;;;;;;13.98;5.15;;;22.10;32.90;;;;;;4968173;28;20055;-61
2024/01/25 00:05:29;;;;;;;17.13;5.15;;;22.10;32.90;;;;;;4969871;28;20499;-60
2024/01/25 00:07:56;;;;;;;16.52;5.07;;;22.10;32.90;;;;;;4969231;28;20046;-60
2024/01/25 00:10:25;;;;;;;14.77;5.32;;;22.00;32.90;;;;;;4967205;28;20419;-59
2024/01/25 00:12:52;;;;;;;17.83;5.07;;;22.00;32.90;;;;;;4966326;28;20058;-54
2024/01/25 00:15:19;;;;;;;18.95;5.25;;;22.00;32.90;;;;;;4967903;28;20151;-56
2024/01/25 00:17:46;;;;;;;14.23;4.70;;;22.00;32.90;;;;;;4968501;28;20061;-60
2024/01/25 00:20:14;;;;;;;18.92;5.47;;;21.90;32.90;;;;;;4969169;28;20058;-59
2024/01/25 00:22:41;;;;;;;13.63;5.13;;;22.00;33.00;;;;;;4970788;28;20061;-60
2024/01/25 00:25:08;;;;;;;15.10;4.55;;;21.90;33.00;;;;;;4969698;28;20054;-61
2024/01/25 00:27:37;;;;;;;17.52;5.75;;;21.90;33.00;;;;;;4967554;28;20050;-60
2024/01/25 00:30:05;;;;;;;16.35;4.50;;;21.90;33.00;;;;;;4966009;28;20047;-61
2024/01/25 00:32:32;;;;;;;19.02;5.68;;;21.90;33.00;;;;;;4967955;28;20139;-60
2024/01/25 00:34:59;;;;;;;16.08;5.22;;;21.80;33.00;;;;;;4970250;28;20499;-61
2024/01/25 00:37:27;;;;;;;15.57;5.30;;;21.80;33.00;;;;;;4966855;28;20055;-58
2024/01/25 00:39:55;;;;;;;14.43;4.72;;;21.80;33.00;;;;;;4969564;28;20047;-60
2024/01/25 00:42:24;;;;;;;13.48;4.82;;;21.80;33.00;;;;;;4965532;28;20538;-60
2024/01/25 00:44:53;;;;;;;17.85;5.15;;;21.80;33.10;;;;;;4967610;28;20074;-56
2024/01/25 00:47:21;;;;;;;18.38;5.82;;;21.70;33.10;;;;;;4967480;28;20447;-60
2024/01/25 00:49:48;;;;;;;13.50;4.60;;;21.80;33.10;;;;;;4967238;28;20399;-60
2024/01/25 00:52:16;;;;;;;13.68;4.88;;;21.80;33.20;;;;;;4966484;28;20047;-61
2024/01/25 00:54:44;;;;;;;16.33;4.93;;;21.80;33.20;;;;;;4969100;28;20431;-59
2024/01/25 00:57:12;;;;;;;17.17;5.22;;;21.80;33.20;;;;;;4968638;28;20457;-54
2024/01/25 00:59:40;;;;;;;14.90;4.70;;;21.90;33.30;;;;;;4964296;28;20993;-54
2024/01/25 01:02:12;;;;;;;13.50;4.85;;;22.00;33.30;;;;;;4963771;28;20503;-54
2024/01/25 01:04:40;;;;;;;12.73;4.22;;;22.00;33.30;;;;;;4965763;28;20059;-54
2024/01/25 01:07:09;;;;;;;13.18;4.35;;;22.10;33.30;;;;;;4968530;28;20057;-53
2024/01/25 01:09:36;;;;;;;14.98;5.28;;;22.20;33.30;;;;;;4967543;28;20065;-55
2024/01/25 01:12:04;;;;;;;15.93;5.18;;;22.20;33.20;;;;;;4966542;28;20058;-54
2024/01/25 01:14:31;;;;;;;13.48;4.53;;;22.30;33.20;;;;;;4966383;28;20058;-51
2024/01/25 01:16:58;;;;;;;13.65;4.82;;;22.30;33.20;;;;;;4967450;28;20061;-54
2024/01/25 01:19:26;;;;;;;11.77;4.35;;;22.40;33.20;;;;;;4968614;28;20058;-52
2024/01/25 01:21:53;;;;;;;14.48;5.13;;;22.40;33.10;;;;;;4966884;28;20065;-55
2024/01/25 01:24:21;;;;;;;16.25;4.65;;;22.50;33.10;;;;;;4962790;28;20062;-57
2024/01/25 01:26:50;;;;;;;14.75;4.88;;;22.50;33.00;;;;;;4966364;28;20066;-54
2024/01/25 01:29:18;;;;;;;18.27;5.32;;;22.50;33.00;;;;;;4970795;28;20074;-55
2024/01/25 01:31:45;;;;;;;15.40;4.20;;;22.50;33.00;;;;;;4967864;28;20055;-54
2024/01/25 01:34:13;;;;;;;15.65;5.22;;;22.50;32.90;;;;;;4965525;28;20364;-54
2024/01/25 01:36:42;;;;;;;15.85;5.40;;;22.50;32.90;;;;;;4964807;28;20062;-54
2024/01/25 01:39:09;;;;;;;16.33;4.90;;;22.50;32.90;;;;;;4967636;28;20055;-55
2024/01/25 01:41:36;;;;;;;14.88;4.95;;;22.60;32.90;;;;;;4967191;28;20050;-57
2024/01/25 01:44:04;;;;;;;14.40;4.97;;;22.50;32.90;;;;;;4967362;28;20054;-55
2024/01/25 01:46:34;;;;;;;13.57;4.93;;;22.50;32.90;;;;;;4966179;28;20526;-57
2024/01/25 01:49:02;;;;;;;15.43;5.00;;;22.60;32.90;;;;;;4966205;28;20050;-58
2024/01/25 01:51:30;;;;;;;15.50;5.40;;;22.50;32.80;;;;;;4966067;28;20055;-53
2024/01/25 01:54:01;;;;;;;16.58;5.70;;;22.50;32.80;;;;;;4964679;28;20051;-57
2024/01/25 01:56:29;;;;;;;18.75;5.13;;;22.50;32.80;;;;;;4958443;28;20447;-56
2024/01/25 01:58:58;;;;;;;16.73;5.55;;;22.50;32.80;;;;;;4966593;28;20058;-55
2024/01/25 02:01:26;;;;;;;20.63;5.70;;;22.50;32.80;;;;;;4966593;28;20050;-55
2024/01/25 02:03:53;;;;;;;18.73;5.15;;;22.50;32.80;;;;;;4962904;28;20055;-53
2024/01/25 02:06:21;;;;;;;18.33;5.55;;;22.50;33.30;;;;;;4965597;28;20054;-56
2024/01/25 02:08:49;;;;;;;17.95;5.40;;;22.50;32.80;;;;;;4968066;28;20061;-61
2024/01/25 02:11:18;;;;;;;20.77;5.25;;;22.50;32.90;;;;;;4968224;28;20049;-62
2024/01/25 02:13:45;;;;;;;15.40;6.00;;;22.40;32.80;;;;;;4967693;28;20400;-59
2024/01/25 02:16:14;;;;;;;16.83;5.30;;;22.40;32.80;;;;;;4962181;28;20506;-61
2024/01/25 02:18:42;;;;;;;19.27;5.75;;;22.40;32.80;;;;;;4964335;28;20054;-60
2024/01/25 02:21:10;;;;;;;20.25;6.03;;;22.40;32.80;;;;;;4965228;28;20079;-61
2024/01/25 02:23:38;;;;;;;16.45;5.47;;;22.30;33.10;;;;;;4968789;28;20164;-60
2024/01/25 02:26:05;;;;;;;17.05;4.85;;;22.30;32.80;;;;;;4960433;28;20051;-61
2024/01/25 02:28:34;;;;;;;18.88;5.68;;;22.30;32.80;;;;;;4966020;28;20499;-58
2024/01/25 02:31:03;;;;;;;18.20;5.72;;;22.30;32.80;;;;;;4967606;28;20066;-61
2024/01/25 02:33:31;;;;;;;17.63;5.60;;;22.30;32.80;;;;;;4966651;28;20051;-59
2024/01/25 02:35:58;;;;;;;18.02;6.10;;;22.30;32.80;;;;;;4963084;28;20605;-61
2024/01/25 02:38:25;;;;;;;20.20;5.65;;;22.20;32.80;;;;;;4966691;28;20110;-59
2024/01/25 02:40:54;;;;;;;20.15;5.25;;;22.20;32.80;;;;;;4958372;28;20047;-62
2024/01/25 02:43:22;;;;;;;22.30;6.45;;;22.20;32.90;;;;;;4963460;28;20055;-62
2024/01/25 02:45:49;;;;;;;21.48;6.13;;;22.20;32.90;;;;;;4966334;28;20055;-61
2024/01/25 02:48:17;;;;;;;15.35;5.55;;;22.10;32.80;;;;;;4965941;28;20054;-61
2024/01/25 02:50:44;;;;;;;17.33;5.45;;;22.10;32.90;;;;;;4961638;28;20249;-56
2024/01/25 02:53:12;;;;;;;16.38;5.35;;;22.10;32.80;;;;;;4966200;28;20055;-60
2024/01/25 02:55:39;;;;;;;19.10;5.93;;;22.10;32.90;;;;;;4963622;28;20493;-60
2024/01/25 02:58:07;;;;;;;19.02;5.75;;;22.10;32.90;;;;;;4966525;28;20058;-60
2024/01/25 03:00:34;;;;;;;18.73;5.53;;;22.00;32.90;;;;;;4965427;28;20061;-61
2024/01/25 03:03:02;;;;;;;19.13;5.90;;;22.00;32.90;;;;;;4963123;28;20047;-59
2024/01/25 03:05:29;;;;;;;16.02;5.38;;;22.00;32.90;;;;;;4965290;28;20085;-61
2024/01/25 03:07:56;;;;;;;18.60;5.50;;;22.00;32.90;;;;;;4965719;28;20059;-60
2024/01/25 03:10:24;;;;;;;19.30;5.50;;;22.00;33.00;;;;;;4966162;28;20055;-61
2024/01/25 03:12:51;;;;;;;22.73;5.68;;;21.90;33.00;;;;;;4965530;28;20070;-58
2024/01/25 03:15:19;;;;;;;19.00;5.78;;;21.90;33.00;;;;;;4965797;28;20059;-60
2024/01/25 03:17:47;;;;;;;17.75;5.32;;;21.90;33.00;;;;;;4963561;28;20392;-60
2024/01/25 03:20:14;;;;;;;18.02;5.22;;;21.90;33.00;;;;;;4964586;28;20058;-60
2024/01/25 03:22:41;;;;;;;13.63;4.65;;;21.80;33.00;;;;;;4963630;28;20054;-60
2024/01/25 03:25:09;;;;;;;14.45;4.53;;;21.90;33.10;;;;;;4963762;28;20393;-58
2024/01/25 03:27:37;;;;;;;16.85;5.13;;;21.90;33.10;;;;;;4966034;28;20062;-58
2024/01/25 03:30:06;;;;;;;14.38;5.38;;;21.90;33.20;;;;;;4964459;28;20538;-60
2024/01/25 03:32:35;;;;;;;17.15;5.03;;;21.90;33.20;;;;;;4962261;28;20615;-58
2024/01/25 03:35:02;;;;;;;16.80;5.38;;;22.00;33.30;;;;;;4963840;28;20063;-57
2024/01/25 03:37:30;;;;;;;16.50;5.13;;;22.00;33.20;;;;;;4964373;28;20055;-57
2024/01/25 03:39:57;;;;;;;12.73;4.47;;;22.10;33.30;;;;;;4963398;28;20530;-59
2024/01/25 03:42:24;;;;;;;16.05;5.47;;;22.10;33.20;;;;;;4963784;28;20054;-59
2024/01/25 03:44:52;;;;;;;17.67;5.40;;;22.10;33.20;;;;;;4965519;28;20054;-59
2024/01/25 03:47:20;;;;;;;16.75;5.45;;;22.20;33.20;;;;;;4963060;28;20613;-58
2024/01/25 03:49:48;;;;;;;15.65;5.18;;;22.20;33.20;;;;;;4960883;28;20054;-59
2024/01/25 03:52:15;;;;;;;16.23;5.50;;;22.30;33.20;;;;;;4961739;28;20076;-61
2024/01/25 03:54:43;;;;;;;16.73;5.43;;;22.30;33.20;;;;;;4963092;28;20058;-57
2024/01/25 03:57:10;;;;;;;17.40;5.15;;;22.30;33.10;;;;;;4965325;28;20546;-61
2024/01/25 03:59:37;;;;;;;17.10;5.32;;;22.30;33.00;;;;;;4967204;28;20490;-61
2024/01/25 04:02:04;;;;;;;17.75;5.47;;;22.30;33.00;;;;;;4966137;28;20065;-60
2024/01/25 04:04:32;;;;;;;18.20;5.55;;;22.30;33.00;;;;;;4966230;28;20059;-60
2024/01/25 04:07:00;;;;;;;17.00;5.88;;;22.30;33.00;;;;;;4961685;28;20423;-60
2024/01/25 04:09:27;;;;;;;17.35;6.07;;;22.30;33.00;;;;;;4962926;28;20070;-60
2024/01/25 04:11:55;;;;;;;20.00;5.40;;;22.30;33.00;;;;;;4966260;28;20054;-58
2024/01/25 04:14:22;;;;;;;17.55;5.40;;;22.30;33.00;;;;;;4962594;28;20062;-61
2024/01/25 04:16:50;;;;;;;18.02;5.22;;;22.30;32.90;;;;;;4965010;28;20061;-61
2024/01/25 04:19:17;;;;;;;19.13;5.80;;;22.30;32.90;;;;;;4963380;28;20066;-61
2024/01/25 04:21:44;;;;;;;17.50;5.47;;;22.30;33.00;;;;;;4961414;28;20057;-62
2024/01/25 04:24:13;;;;;;;20.00;6.40;;;22.30;32.90;;;;;;4965141;28;20055;-59
2024/01/25 04:26:40;;;;;;;22.42;5.70;;;22.30;33.00;;;;;;4961800;28;20419;-61
2024/01/25 04:29:07;;;;;;;19.08;5.85;;;22.20;32.90;;;;;;4964284;28;20051;-57
2024/01/25 04:31:34;;;;;;;19.38;5.75;;;22.20;32.90;;;;;;4964309;28;20050;-61
2024/01/25 04:34:02;;;;;;;17.27;6.22;;;22.20;32.90;;;;;;4965365;28;20136;-61
2024/01/25 04:36:29;;;;;;;18.98;5.30;;;22.20;32.90;;;;;;4963913;28;20488;-60
2024/01/25 04:38:56;;;;;;;22.27;6.18;;;22.20;32.90;;;;;;4968641;28;20407;-59
2024/01/25 04:41:25;;;;;;;19.00;5.95;;;22.20;32.90;;;;;;4967792;28;20055;-61
2024/01/25 04:43:52;;;;;;;19.13;6.15;;;22.20;33.00;;;;;;4969862;28;20512;-59
2024/01/25 04:46:19;;;;;;;20.42;6.13;;;22.10;32.90;;;;;;4967889;28;20085;-59
2024/01/25 04:48:46;;;;;;;19.63;6.38;;;22.10;32.90;;;;;;4969479;28;20058;-58
2024/01/25 04:51:17;;;;;;;16.02;5.60;;;22.10;33.00;;;;;;4964759;28;20059;-59
2024/01/25 04:53:44;;;;;;;22.20;6.38;;;22.10;33.00;;;;;;4968333;28;20427;-61
2024/01/25 04:56:11;;;;;;;22.25;6.28;;;22.00;32.90;;;;;;4966636;28;20077;-62
2024/01/25 04:58:40;;;;;;;22.10;6.65;;;22.00;33.00;;;;;;4966981;28;20057;-59
2024/01/25 05:01:07;;;;;;;18.75;5.70;;;22.00;33.00;;;;;;4969220;28;20047;-61
2024/01/25 05:03:34;;;;;;;20.98;6.43;;;22.00;33.10;;;;;;4968726;28;20078;-61
2024/01/25 05:06:02;;;;;;;19.20;6.45;;;22.00;33.10;;;;;;4966647;28;20945;-57
2024/01/25 05:08:29;;;;;;;25.40;7.40;;;22.00;33.20;;;;;;4967072;28;20055;-57
2024/01/25 05:10:56;;;;;;;21.35;6.55;;;22.00;33.20;;;;;;4967910;28;20058;-59
2024/01/25 05:13:24;;;;;;;21.63;6.90;;;22.10;33.20;;;;;;4968315;28;20058;-57
2024/01/25 05:15:52;;;;;;;21.88;6.85;;;22.10;33.70;;;;;;4963976;28;20062;-61
2024/01/25 05:18:19;;;;;;;21.52;6.85;;;22.10;33.20;;;;;;4966055;28;20074;-60
2024/01/25 05:20:47;;;;;;;35.95;7.70;;;22.20;33.20;;;;;;4967093;28;20057;-54
2024/01/25 05:23:14;;;;;;;23.58;6.60;;;22.20;33.30;;;;;;4966677;28;20671;-57
2024/01/25 05:25:41;;;;;;;25.50;7.05;;;22.20;33.30;;;;;;4963305;28;20055;-60
2024/01/25 05:28:08;;;;;;;25.35;6.05;;;22.30;33.40;;;;;;4965468;28;20090;-57
2024/01/25 05:30:36;;;;;;;21.17;5.97;;;22.30;33.40;;;;;;4969394;28;20055;-59
2024/01/25 05:33:04;;;;;;;26.02;6.47;;;22.40;33.40;;;;;;4968912;28;20061;-57
2024/01/25 05:35:33;;;;;;;26.13;8.15;;;22.40;33.40;;;;;;4968403;28;20058;-60
2024/01/25 05:38:00;;;;;;;66.25;19.45;;;22.40;33.30;;;;;;4968605;28;20050;-54
2024/01/25 05:40:27;;;;;;;47.35;16.27;;;22.40;33.20;;;;;;4969900;28;20515;-56
2024/01/25 05:42:55;;;;;;;33.05;12.88;;;22.50;33.20;;;;;;4971189;28;20090;-51
2024/01/25 05:45:23;;;;;;;28.38;10.30;;;22.40;33.10;;;;;;4970750;28;20042;-52
2024/01/25 05:47:53;;;;;;;37.13;8.68;;;22.50;33.20;;;;;;4970410;28;20051;-55
2024/01/25 05:50:22;;;;;;;25.40;8.93;;;22.40;33.10;;;;;;4972313;23;20051;-51
2024/01/25 05:52:49;;;;;;;22.27;7.93;;;22.40;33.20;;;;;;4964745;28;20051;-55
2024/01/25 05:55:16;;;;;;;20.38;7.60;;;22.50;33.20;;;;;;4970605;28;20054;-54
2024/01/25 05:57:44;;;;;;;22.23;8.25;;;22.40;33.20;;;;;;4971124;28;20055;-54
2024/01/25 06:00:15;;;;;;;21.42;7.43;;;22.40;33.20;;;;;;4959991;28;20082;-55
2024/01/25 06:02:43;;;;;;;23.50;7.82;;;22.40;33.10;;;;;;4963009;28;20054;-54
2024/01/25 06:05:11;;;;;;;21.75;7.50;;;22.50;33.10;;;;;;4961589;28;20058;-54
2024/01/25 06:07:40;;;;;;;21.50;8.25;;;22.40;33.10;;;;;;4968731;28;20415;-53
2024/01/25 06:10:08;;;;;;;34.10;11.65;;;22.40;33.00;;;;;;4968631;28;20384;-54
2024/01/25 06:12:35;;;;;;;26.20;9.05;;;22.40;33.00;;;;;;4969959;28;20503;-53
2024/01/25 06:15:02;;;;;;;24.38;7.80;;;22.40;33.00;;;;;;4964020;28;20059;-54
2024/01/25 06:17:31;;;;;;;24.80;7.35;;;22.40;33.00;;;;;;4970239;28;20124;-51
2024/01/25 06:19:58;;;;;;;20.58;6.85;;;22.40;33.00;;;;;;4965445;28;20062;-52
2024/01/25 06:22:25;;;;;;;18.88;6.93;;;22.30;32.90;;;;;;4967601;28;20054;-54
2024/01/25 06:24:54;;;;;;;21.67;6.68;;;22.30;32.90;;;;;;4964852;28;20082;-53
2024/01/25 06:27:21;;;;;;;24.75;6.95;;;22.30;32.90;;;;;;4969372;28;20066;-52
2024/01/25 06:29:48;;;;;;;20.45;7.28;;;22.30;32.90;;;;;;4966797;28;20059;-53
2024/01/25 06:32:16;;;;;;;24.48;7.40;;;22.20;32.90;;;;;;4964964;28;20054;-55
2024/01/25 06:34:43;;;;;;;18.90;5.95;;;22.20;32.90;;;;;;4966160;28;20050;-53
2024/01/25 06:37:11;;;;;;;25.77;7.05;;;22.20;32.90;;;;;;4965218;28;20077;-54
2024/01/25 06:39:39;;;;;;;22.35;6.25;;;22.20;33.00;;;;;;4965329;28;20047;-49
2024/01/25 06:42:07;;;;;;;19.42;6.60;;;22.20;33.00;;;;;;4967546;28;20055;-51
2024/01/25 06:44:35;;;;;;;40.67;6.57;;;22.10;33.00;;;;;;4969193;28;20061;-66
2024/01/25 06:47:02;;;;;;;21.80;6.07;;;22.10;33.20;;;;;;4968355;28;20510;-60
2024/01/25 06:49:29;;;;;;;15.50;5.57;;;22.20;33.20;;;;;;4966346;28;20066;-65
2024/01/25 06:51:56;;;;;;;20.45;5.47;;;22.20;33.20;;;;;;4964515;28;20044;-69
2024/01/25 06:54:24;;;;;;;21.38;6.47;;;22.20;33.20;;;;;;4968602;28;20055;-66
2024/01/25 06:56:51;;;;;;;29.45;7.10;;;22.30;33.20;;;;;;4967178;28;20407;-65
2024/01/25 06:59:20;;;;;;;19.90;5.43;;;22.30;33.20;;;;;;4967444;28;20050;-66
2024/01/25 07:01:47;;;;;;;26.20;6.82;;;22.40;33.20;;;;;;4963054;28;20073;-67
2024/01/25 07:04:14;;;;;;;22.33;7.03;;;22.40;33.10;;;;;;4967236;28;20057;-63
2024/01/25 07:06:41;;;;;;;26.92;7.07;;;22.50;33.00;;;;;;4965123;28;20071;-66
2024/01/25 07:09:09;;;;;;;48.42;8.07;;;22.50;33.00;;;;;;4969744;28;20168;-66
2024/01/25 07:11:36;;;;;;;30.02;6.90;;;22.40;32.80;;;;;;4966502;28;20062;-64
2024/01/25 07:14:03;;;;;;;30.45;7.38;;;22.40;32.80;;;;;;4968891;28;20082;-63
2024/01/25 07:16:32;;;;;;;25.00;7.00;;;22.40;32.80;;;;;;4967230;28;20065;-64
2024/01/25 07:18:59;;;;;;;19.58;6.22;;;22.50;32.80;;;;;;4964682;28;20055;-63
2024/01/25 07:21:26;;;;;;;21.25;6.70;;;22.50;32.80;;;;;;4965262;28;20503;-62
2024/01/25 07:23:54;;;;;;;23.05;6.20;;;22.50;32.80;;;;;;4964064;28;20086;-63
2024/01/25 07:26:22;;;;;;;22.73;6.72;;;22.40;32.80;;;;;;4965169;28;20058;-66
2024/01/25 07:28:49;;;;;;;20.52;6.53;;;22.50;32.80;;;;;;4966255;28;20431;-65
2024/01/25 07:31:16;;;;;;;22.88;6.72;;;22.40;32.80;;;;;;4969633;28;20060;-66
2024/01/25 07:33:45;;;;;;;31.58;7.10;;;22.40;32.80;;;;;;4965219;28;20419;-64
2024/01/25 07:36:12;;;;;;;28.08;7.35;;;22.40;32.60;;;;;;4965197;28;20058;-64
2024/01/25 07:38:40;;;;;;;23.38;7.43;;;22.40;32.70;;;;;;4960807;28;20062;-66
2024/01/25 07:41:07;;;;;;;23.20;6.47;;;22.30;32.70;;;;;;4965361;28;20058;-67
2024/01/25 07:43:34;;;;;;;23.00;6.70;;;22.30;32.70;;;;;;4962933;28;20050;-66
2024/01/25 07:46:01;;;;;;;23.17;7.20;;;22.40;32.80;;;;;;4963820;28;20054;-67
2024/01/25 07:48:29;;;;;;;18.77;6.15;;;22.30;32.80;;;;;;4964038;28;20607;-68
2024/01/25 07:50:57;;;;;;;20.23;6.60;;;22.30;32.80;;;;;;4965822;28;20059;-67
2024/01/25 07:53:25;;;;;;;21.42;6.57;;;22.30;32.80;;;;;;4961043;28;20569;-67
2024/01/25 07:55:52;;;;;;;19.35;6.38;;;22.30;32.80;;;;;;4962448;28;20059;-67
2024/01/25 07:58:20;;;;;;;22.50;6.70;;;22.20;32.80;;;;;;4965087;28;20411;-66
2024/01/25 08:00:47;;;;;;;22.40;6.18;;;22.20;32.90;;;;;;4964928;28;20431;-66
2024/01/25 08:03:16;;;;;;;22.77;6.63;;;22.20;32.90;;;;;;4965154;28;20082;-65
2024/01/25 08:05:44;;;;;;;22.50;6.18;;;22.10;32.80;;;;;;4961856;28;20054;-62
2024/01/25 08:08:12;;;;;;;19.92;6.07;;;22.10;32.90;;;;;;4960900;28;20081;-62
2024/01/25 08:10:39;;;;;;;18.67;5.78;;;22.10;33.00;;;;;;4962486;28;20514;-62
2024/01/25 08:13:07;;;;;;;24.85;6.55;;;22.10;33.10;;;;;;4963279;28;20128;-63
2024/01/25 08:15:34;;;;;;;15.50;5.40;;;22.10;33.00;;;;;;4966431;28;20062;-62
2024/01/25 08:18:01;;;;;;;21.80;6.15;;;22.10;33.10;;;;;;4968740;28;20065;-62
2024/01/25 08:20:29;;;;;;;25.50;6.88;;;22.00;33.00;;;;;;4965193;28;20058;-64
2024/01/25 08:22:57;;;;;;;23.73;7.22;;;22.00;33.10;;;;;;4966646;28;20043;-64
2024/01/25 08:25:26;;;;;;;26.33;7.30;;;22.00;33.00;;;;;;4967099;28;20058;-61
2024/01/25 08:27:53;;;;;;;22.15;7.00;;;22.00;33.00;;;;;;4967074;28;20063;-63
2024/01/25 08:30:21;;;;;;;26.70;7.40;;;22.00;32.90;;;;;;4968195;28;20067;-64
2024/01/25 08:32:48;;;;;;;22.60;7.32;;;22.00;32.80;;;;;;4967383;28;20062;-63
2024/01/25 08:35:15;;;;;;;22.15;7.22;;;22.00;32.80;;;;;;4967284;28;20419;-63
2024/01/25 08:37:42;;;;;;;23.83;6.82;;;22.10;32.80;;;;;;4965105;28;20058;-63
2024/01/25 08:40:11;;;;;;;22.77;7.07;;;22.10;32.70;;;;;;4970063;28;20055;-64
2024/01/25 08:42:40;;;;;;;30.95;7.75;;;22.10;32.70;;;;;;4967680;28;20078;-63
2024/01/25 08:45:09;;;;;;;26.55;7.28;;;22.10;32.60;;;;;;4970121;28;20066;-63
2024/01/25 08:47:36;;;;;;;26.27;7.50;;;22.10;32.60;;;;;;4963806;28;20059;-63
2024/01/25 08:50:05;;;;;;;27.17;7.10;;;22.10;32.60;;;;;;4967309;28;20058;-64
2024/01/25 08:52:33;;;;;;;25.52;6.55;;;22.00;32.60;;;;;;4968235;28;20077;-63
2024/01/25 08:55:00;;;;;;;22.52;6.55;;;22.10;32.60;;;;;;4968664;28;20058;-64
2024/01/25 08:57:27;;;;;;;30.77;9.48;;;22.10;32.60;;;;;;4970087;28;20058;-63
2024/01/25 08:59:58;;;;;;;26.00;7.70;;;22.10;32.60;;;;;;4963697;28;20063;-63
2024/01/25 09:02:27;;;;;;;23.98;7.55;;;22.20;32.60;;;;;;4959997;28;20050;-63
2024/01/25 09:04:54;;;;;;;21.17;6.30;;;22.20;32.50;;;;;;4964738;28;20062;-63
2024/01/25 09:07:22;;;;;;;23.20;6.97;;;22.20;32.50;;;;;;4964498;28;20050;-65
2024/01/25 09:09:49;;;;;;;26.00;6.65;;;22.20;32.40;;;;;;4966603;28;20054;-61
2024/01/25 09:12:16;;;;;;;18.88;6.22;;;22.20;32.40;;;;;;4966338;28;20499;-62
2024/01/25 09:14:44;;;;;;;33.47;6.72;;;22.20;32.50;;;;;;4964616;28;20047;-62
2024/01/25 09:17:13;;;;;;;22.67;6.70;;;22.20;32.50;;;;;;4968885;28;20054;-62
2024/01/25 09:19:40;;;;;;;18.25;5.57;;;22.30;32.70;;;;;;4967032;28;20059;-62
2024/01/25 09:22:09;;;;;;;20.98;6.32;;;22.20;32.70;;;;;;4970685;28;20059;-62
2024/01/25 09:24:39;;;;;;;19.45;5.35;;;22.30;32.80;;;;;;4969892;28;20043;-61
2024/01/25 09:27:07;;;;;;;18.45;5.68;;;22.30;32.80;;;;;;4965938;28;20054;-63
2024/01/25 09:29:34;;;;;;;19.67;5.07;;;22.30;32.80;;;;;;4969003;28;20443;-65
2024/01/25 09:32:01;;;;;;;17.73;5.13;;;22.30;32.90;;;;;;4968158;28;20054;-65
2024/01/25 09:34:30;;;;;;;16.40;5.10;;;22.30;33.00;;;;;;4965194;28;20499;-65
2024/01/25 09:36:57;;;;;;;15.88;5.20;;;22.40;33.00;;;;;;4957319;28;20055;-64
2024/01/25 09:39:25;;;;;;;16.38;5.18;;;22.40;32.90;;;;;;4956684;28;20418;-65
2024/01/25 09:41:52;;;;;;;16.02;5.15;;;22.40;32.90;;;;;;4965191;28;20070;-65
2024/01/25 09:44:19;;;;;;;14.80;5.15;;;22.40;32.90;;;;;;4964550;28;20073;-66
2024/01/25 09:46:47;;;;;;;13.93;4.30;;;22.40;32.90;;;;;;4961973;28;20067;-62
2024/01/25 09:49:14;;;;;;;13.38;4.55;;;22.40;32.80;;;;;;4961518;28;20055;-62
2024/01/25 09:51:45;;;;;;;13.23;4.65;;;22.40;32.80;;;;;;4964335;28;20051;-62
2024/01/25 09:54:14;;;;;;;12.23;4.53;;;22.40;32.80;;;;;;4963541;28;20484;-62
2024/01/25 09:56:42;;;;;;;15.48;4.63;;;22.40;32.80;;;;;;4963759;28;20055;-62
2024/01/25 09:59:11;;;;;;;13.23;4.75;;;22.40;32.80;;;;;;4959086;28;20050;-62
2024/01/25 10:01:38;;;;;;;13.00;4.93;;;22.50;32.90;;;;;;4961062;28;20054;-63
2024/01/25 10:04:08;;;;;;;16.08;4.68;;;22.40;32.80;;;;;;4965189;28;20058;-62
2024/01/25 10:06:35;;;;;;;14.77;4.90;;;22.40;32.80;;;;;;4964161;28;20059;-62
2024/01/25 10:09:08;;;;;;;14.00;4.72;;;22.40;32.80;;;;;;4965724;28;20065;-63
2024/01/25 10:11:37;;;;;;;11.57;4.43;;;22.40;32.80;;;;;;4963051;28;20051;-62
2024/01/25 10:14:06;;;;;;;13.52;4.22;;;22.40;32.80;;;;;;4959823;28;20047;-63
2024/01/25 10:16:33;;;;;;;13.68;4.75;;;22.40;32.80;;;;;;4957123;28;20062;-63
2024/01/25 10:19:02;;;;;;;14.65;4.10;;;22.40;32.80;;;;;;4958898;28;20139;-61
2024/01/25 10:21:30;;;;;;;12.30;4.57;;;22.40;32.80;;;;;;4956025;28;20057;-62
2024/01/25 10:23:58;;;;;;;11.77;4.35;;;22.40;32.80;;;;;;4963312;28;20053;-62
2024/01/25 10:26:29;;;;;;;14.13;4.70;;;22.40;32.80;;;;;;4961224;28;20059;-58
2024/01/25 10:28:56;;;;;;;14.65;5.15;;;22.30;32.70;;;;;;4964327;28;20059;-59
2024/01/25 10:31:25;;;;;;;13.25;4.32;;;22.30;32.70;;;;;;4960626;28;20055;-61
2024/01/25 10:33:54;;;;;;;14.05;4.53;;;22.30;32.70;;;;;;4963954;28;20482;-62
2024/01/25 10:36:22;;;;;;;16.65;4.45;;;22.30;32.80;;;;;;4956453;28;20062;-62
2024/01/25 10:38:50;;;;;;;12.50;4.78;;;22.30;32.80;;;;;;4961407;28;20502;-61
2024/01/25 10:41:20;;;;;;;15.70;4.65;;;22.30;32.80;;;;;;4960638;28;20419;-61
2024/01/25 10:43:49;;;;;;;14.88;4.65;;;22.20;32.80;;;;;;4956773;28;20051;-60
2024/01/25 10:46:17;;;;;;;13.77;4.53;;;22.20;32.80;;;;;;4963005;28;20059;-60
2024/01/25 10:48:44;;;;;;;16.17;4.97;;;22.20;32.70;;;;;;4962695;28;20061;-62
2024/01/25 10:51:14;;;;;;;16.15;4.53;;;22.20;32.80;;;;;;4964965;28;20054;-59
2024/01/25 10:53:42;;;;;;;13.20;4.03;;;22.20;32.80;;;;;;4966779;28;20057;-60
2024/01/25 10:56:09;;;;;;;10.98;3.90;;;22.20;32.80;;;;;;4962458;28;20048;-61
2024/01/25 10:58:36;;;;;;;13.80;3.88;;;22.20;32.80;;;;;;4969031;28;20495;-62
2024/01/25 11:01:11;;;;;;;9.00;3.60;;;22.10;32.80;;;;;;4963561;28;20074;-59
2024/01/25 11:03:40;;;;;;;13.70;3.95;;;22.10;32.90;;;;;;4966607;28;20050;-61
2024/01/25 11:06:09;;;;;;;16.63;3.90;;;22.10;32.90;;;;;;4961549;28;20061;-60
2024/01/25 11:08:38;;;;;;;19.95;4.28;;;22.10;32.90;;;;;;4963824;28;20410;-61
2024/01/25 11:11:08;;;;;;;18.15;4.43;;;22.10;32.90;;;;;;4965121;28;20047;-60
2024/01/25 11:13:39;;;;;;;26.60;4.18;;;22.10;33.00;;;;;;4964260;28;20431;-60
2024/01/25 11:16:17;;;;;;;16.13;4.45;;;22.10;33.00;;;;;;4960846;28;20503;-60
2024/01/25 11:18:50;;;;;;;22.30;4.38;;;22.10;33.00;;;;;;4963275;28;20054;-60
2024/01/25 11:21:26;;;;;;;14.50;4.38;;;22.10;33.00;;;;;;4966288;28;20067;-60
2024/01/25 11:24:03;;;;;;;13.70;4.75;;;22.00;32.90;;;;;;4956938;28;20073;-61
2024/01/25 11:26:33;;;;;;;17.75;5.38;;;22.00;32.90;;;;;;4959880;28;20408;-63
2024/01/25 11:29:01;;;;;;;13.80;4.60;;;22.00;33.00;;;;;;4963390;28;20062;-66
2024/01/25 11:31:29;;;;;;;9.27;3.53;;;22.00;33.00;;;;;;4967748;28;20426;-66
2024/01/25 11:33:59;;;;;;;15.35;3.88;;;22.00;33.00;;;;;;4962794;28;20053;-66
2024/01/25 11:36:27;;;;;;;13.05;3.53;;;22.00;33.00;;;;;;4965865;28;20070;-67
2024/01/25 11:38:54;;;;;;;8.32;3.13;;;22.00;33.00;;;;;;4967479;28;20062;-66
2024/01/25 11:41:21;;;;;;;13.45;3.88;;;22.10;33.00;;;;;;4967799;28;20058;-65
2024/01/25 11:43:50;;;;;;;10.50;3.58;;;22.10;33.00;;;;;;4967285;28;20057;-66
2024/01/25 11:46:18;;;;;;;13.43;4.45;;;22.20;33.50;;;;;;4964717;28;20054;-66
2024/01/25 11:48:46;;;;;;;9.80;3.38;;;22.20;33.00;;;;;;4969630;28;20407;-64
2024/01/25 11:51:14;;;;;;;7.55;3.00;;;22.20;33.00;;;;;;4961183;28;20674;-64
2024/01/25 11:53:41;;;;;;;11.43;3.80;;;22.30;32.90;;;;;;4968658;28;20051;-65
2024/01/25 11:56:11;;;;;;;11.32;3.60;;;22.40;32.90;;;;;;4964842;28;20058;-65
2024/01/25 11:58:39;;;;;;;10.98;4.00;;;22.40;32.90;;;;;;4965944;28;20578;-66
2024/01/25 12:01:07;;;;;;;11.07;3.45;;;22.40;32.80;;;;;;4968591;28;20429;-66
2024/01/25 12:03:37;;;;;;;11.43;3.40;;;22.40;32.80;;;;;;4967874;28;20047;-66
2024/01/25 12:06:06;;;;;;;7.47;2.75;;;22.40;32.80;;;;;;4964249;28;20058;-66
2024/01/25 12:08:34;;;;;;;11.75;3.65;;;22.40;32.80;;;;;;4962172;28;20055;-66
2024/01/25 12:11:05;;;;;;;9.85;3.53;;;22.40;32.80;;;;;;4967549;28;20054;-65
2024/01/25 12:13:34;;;;;;;10.25;4.10;;;22.40;32.70;;;;;;4967399;28;20059;-65
2024/01/25 12:16:03;;;;;;;9.30;3.35;;;22.40;32.70;;;;;;4968446;28;20059;-65
2024/01/25 12:18:31;;;;;;;11.38;3.88;;;22.50;32.70;;;;;;4967469;28;20055;-65
2024/01/25 12:21:00;;;;;;;12.20;3.70;;;22.40;32.60;;;;;;4966865;28;20042;-65
2024/01/25 12:23:36;;;;;;;13.82;4.07;;;22.40;32.60;;;;;;4965118;28;20109;-66
2024/01/25 12:26:04;;;;;;;13.30;4.28;;;22.40;32.60;;;;;;4967523;28;20407;-65
2024/01/25 12:28:33;;;;;;;10.35;3.72;;;22.40;32.60;;;;;;4961441;28;21059;-66
2024/01/25 12:31:01;;;;;;;12.50;3.67;;;22.40;32.60;;;;;;4963206;28;20055;-66
2024/01/25 12:33:28;;;;;;;13.35;3.60;;;22.40;32.60;;;;;;4967466;28;20059;-65
2024/01/25 12:35:56;;;;;;;11.60;3.72;;;22.30;32.50;;;;;;4966578;28;20046;-66
2024/01/25 12:38:23;;;;;;;9.88;3.67;;;22.30;32.50;;;;;;4967547;28;20058;-65
2024/01/25 12:40:53;;;;;;;10.57;3.63;;;22.30;32.50;;;;;;4967439;28;20051;-65